createdAt,value
2023-04-20T00:00:19.252Z,90.11
2023-04-20T00:04:56.887Z,90.30
2023-04-20T00:09:15.716Z,90.46
2023-04-20T00:13:33.689Z,90.47
2023-04-20T00:17:51.748Z,90.40
2023-04-20T00:22:09.848Z,90.31
2023-04-20T00:26:27.553Z,90.49
2023-04-20T00:30:45.187Z,90.79
2023-04-20T00:35:03.076Z,90.90
2023-04-20T00:39:20.710Z,91.04
2023-04-20T00:43:38.432Z,91.22
2023-04-20T00:47:56.198Z,91.16
2023-04-20T00:52:14.017Z,91.17
2023-04-20T00:56:31.603Z,91.25
2023-04-20T01:00:49.212Z,91.30
2023-04-20T01:05:07.270Z,91.25
2023-04-20T01:09:24.638Z,91.26
2023-04-20T01:13:43.324Z,91.22
2023-04-20T01:18:01.134Z,91.20
2023-04-20T01:22:21.469Z,91.29
2023-04-20T01:26:39.092Z,91.43
2023-04-20T01:30:56.918Z,91.52
2023-04-20T01:35:16.000Z,91.51
2023-04-20T01:39:38.398Z,91.28
2023-04-20T01:43:56.133Z,91.18
2023-04-20T01:48:13.814Z,91.16
2023-04-20T01:52:31.031Z,91.22
2023-04-20T01:56:48.764Z,91.23
2023-04-20T02:01:06.330Z,91.22
2023-04-20T02:05:24.127Z,91.21
2023-04-20T02:09:41.682Z,91.18
2023-04-20T02:14:00.269Z,91.03
2023-04-20T02:18:18.049Z,90.71
2023-04-20T02:22:36.602Z,90.44
2023-04-20T02:26:53.992Z,90.41
2023-04-20T02:31:13.105Z,90.52
2023-04-20T02:35:30.951Z,90.67
2023-04-20T02:39:48.707Z,90.54
2023-04-20T02:44:06.261Z,90.64
2023-04-20T02:48:24.022Z,90.58
2023-04-20T02:52:41.595Z,90.68
2023-04-20T02:56:59.316Z,90.66
2023-04-20T03:01:16.950Z,90.63
2023-04-20T03:05:34.600Z,90.62
2023-04-20T03:09:52.191Z,90.50
2023-04-20T03:14:09.854Z,90.24
2023-04-20T03:18:27.506Z,90.19
2023-04-20T03:22:45.211Z,90.11
2023-04-20T03:27:02.813Z,90.17
2023-04-20T03:31:20.564Z,90.40
2023-04-20T03:35:39.618Z,90.38
2023-04-20T03:39:57.553Z,90.45
2023-04-20T03:44:15.432Z,90.37
2023-04-20T03:48:34.153Z,90.28
2023-04-20T03:52:51.816Z,90.35
2023-04-20T03:57:09.451Z,90.24
2023-04-20T04:01:27.362Z,90.06
2023-04-20T04:05:44.953Z,89.80
2023-04-20T04:14:55.117Z,89.69
2023-04-20T04:19:17.955Z,89.24
2023-04-20T04:23:37.505Z,88.95
2023-04-20T04:27:55.212Z,88.69
2023-04-20T04:32:18.206Z,88.86
2023-04-20T04:36:54.299Z,89.10
2023-04-20T04:41:30.789Z,89.22
2023-04-20T04:45:50.123Z,88.95
2023-04-20T04:50:10.870Z,88.91
2023-04-20T04:54:28.502Z,88.83
2023-04-20T04:58:46.595Z,89.22
2023-04-20T05:03:04.510Z,88.51
2023-04-20T05:07:22.601Z,88.39
2023-04-20T05:11:40.070Z,87.87
2023-04-20T05:15:57.899Z,87.00
2023-04-20T05:20:15.716Z,86.83
2023-04-20T05:24:33.365Z,87.15
2023-04-20T05:28:51.923Z,86.84
2023-04-20T05:33:09.471Z,85.12
2023-04-20T05:37:28.180Z,85.38
2023-04-20T05:41:47.796Z,84.30
2023-04-20T05:46:05.657Z,82.05
2023-04-20T05:50:24.876Z,81.51
2023-04-20T05:54:42.564Z,80.47
2023-04-20T05:59:00.654Z,78.69
2023-04-20T06:03:18.791Z,79.29
2023-04-20T06:07:37.514Z,78.75
2023-04-20T06:11:55.167Z,77.60
2023-04-20T06:16:12.728Z,75.76
2023-04-20T06:20:31.154Z,72.36
2023-04-20T06:24:48.711Z,71.31
2023-04-20T06:29:06.661Z,70.72
2023-04-20T06:33:24.236Z,70.79
2023-04-20T06:37:41.952Z,68.78
2023-04-20T06:41:59.766Z,68.65
2023-04-20T06:46:17.624Z,66.17
2023-04-20T06:50:35.468Z,65.41
2023-04-20T06:54:53.546Z,66.34
2023-04-20T06:59:11.034Z,65.10
2023-04-20T07:03:28.966Z,63.93
2023-04-20T07:07:46.549Z,60.91
2023-04-20T07:12:04.348Z,60.17
2023-04-20T07:16:21.898Z,60.22
2023-04-20T07:20:40.098Z,61.29
2023-04-20T07:24:57.524Z,58.95
2023-04-20T07:29:15.613Z,59.41
2023-04-20T07:33:35.890Z,58.15
2023-04-20T07:37:53.850Z,60.55
2023-04-20T07:42:11.540Z,59.26
2023-04-20T07:46:29.417Z,58.21
2023-04-20T07:50:47.250Z,59.45
2023-04-20T07:55:08.468Z,57.67
2023-04-20T07:59:26.310Z,56.33
2023-04-20T08:03:44.141Z,55.48
2023-04-20T08:08:01.954Z,55.28
2023-04-20T08:12:19.496Z,54.53
2023-04-20T08:16:38.365Z,54.70
2023-04-20T08:20:56.230Z,54.61
2023-04-20T08:25:13.829Z,54.50
2023-04-20T08:29:31.617Z,52.86
2023-04-20T08:33:49.501Z,55.09
2023-04-20T08:38:07.426Z,52.90
2023-04-20T08:42:25.248Z,54.22
2023-04-20T08:46:47.959Z,55.02
2023-04-20T08:51:06.426Z,51.60
2023-04-20T08:55:23.520Z,52.88
2023-04-20T08:59:41.357Z,50.07
2023-04-20T09:04:00.834Z,46.17
2023-04-20T09:08:18.701Z,45.71
2023-04-20T09:12:43.348Z,52.62
2023-04-20T09:17:02.499Z,53.26
2023-04-20T09:21:22.145Z,50.12
2023-04-20T09:25:41.342Z,47.88
2023-04-20T09:30:01.651Z,48.05
2023-04-20T09:34:21.298Z,48.72
2023-04-20T09:38:39.030Z,49.93
2023-04-20T09:43:03.253Z,50.63
2023-04-20T09:47:23.086Z,54.84
2023-04-20T09:51:46.721Z,56.86
2023-04-20T09:56:07.208Z,57.64
2023-04-20T10:00:28.353Z,59.78
2023-04-20T10:04:56.905Z,57.16
2023-04-20T10:09:24.838Z,57.77
2023-04-20T10:13:42.256Z,57.01
2023-04-20T10:18:00.741Z,56.82
2023-04-20T10:22:33.692Z,53.71
2023-04-20T10:26:51.452Z,54.01
2023-04-20T10:31:13.300Z,55.48
2023-04-20T10:35:51.950Z,56.08
2023-04-20T10:40:10.808Z,56.86
2023-04-20T10:44:28.682Z,58.10
2023-04-20T10:48:53.858Z,60.92
2023-04-20T10:53:22.344Z,60.50
2023-04-20T10:57:44.913Z,59.46
2023-04-20T11:02:08.110Z,59.24
2023-04-20T11:06:26.348Z,59.65
2023-04-20T11:10:43.995Z,59.13
2023-04-20T11:15:03.454Z,59.67
2023-04-20T11:19:29.617Z,60.06
2023-04-20T11:23:50.317Z,58.07
2023-04-20T11:28:11.830Z,58.61
2023-04-20T11:32:29.675Z,54.64
2023-04-20T11:36:47.361Z,47.73
2023-04-20T11:41:05.123Z,48.59
2023-04-20T11:45:23.558Z,46.94
2023-04-20T11:49:41.201Z,37.06
2023-04-20T11:53:58.748Z,37.40
2023-04-20T11:58:16.402Z,40.86
2023-04-20T12:02:34.039Z,45.66
2023-04-20T12:06:51.744Z,48.95
2023-04-20T12:11:09.480Z,50.82
2023-04-20T12:15:28.011Z,52.81
2023-04-20T12:19:45.543Z,54.65
2023-04-20T12:24:04.503Z,55.14
2023-04-20T12:28:22.056Z,54.23
2023-04-20T12:32:39.946Z,53.06
2023-04-20T12:36:57.356Z,52.67
2023-04-20T12:41:15.915Z,50.40
2023-04-20T12:45:34.130Z,49.66
2023-04-20T12:49:51.870Z,47.16
2023-04-20T12:54:09.516Z,37.27
2023-04-20T12:58:27.351Z,24.53
2023-04-20T13:02:45.261Z,21.64
2023-04-20T13:07:02.928Z,34.53
2023-04-20T13:11:20.668Z,29.85
2023-04-20T13:15:39.679Z,28.14
2023-04-20T13:19:57.730Z,23.13
2023-04-20T13:24:15.833Z,29.26
2023-04-20T13:28:33.881Z,36.98
2023-04-20T13:32:51.851Z,38.13
2023-04-20T13:37:09.601Z,38.83
2023-04-20T13:41:27.167Z,38.88
2023-04-20T13:45:44.968Z,39.78
2023-04-20T13:50:03.780Z,38.52
2023-04-20T13:54:21.886Z,29.72
2023-04-20T13:58:39.283Z,17.79
2023-04-20T14:02:57.999Z,15.00
2023-04-20T14:07:15.739Z,18.15
2023-04-20T14:11:33.658Z,25.51
2023-04-20T14:15:52.134Z,30.20
2023-04-20T14:20:11.009Z,32.19
2023-04-20T14:24:28.751Z,37.33
2023-04-20T14:28:47.472Z,39.76
2023-04-20T14:33:05.663Z,41.75
2023-04-20T14:37:25.283Z,44.05
2023-04-20T14:41:42.907Z,43.58
2023-04-20T14:46:01.126Z,45.23
2023-04-20T14:50:18.850Z,43.29
2023-04-20T14:54:36.420Z,42.91
2023-04-20T14:58:54.259Z,41.85
2023-04-20T15:03:11.784Z,44.48
2023-04-20T15:07:29.601Z,46.79
2023-04-20T15:11:47.164Z,33.11
2023-04-20T15:16:05.195Z,25.09
2023-04-20T15:20:23.360Z,31.59
2023-04-20T15:24:41.538Z,36.38
2023-04-20T15:28:59.036Z,38.19
2023-04-20T15:33:16.308Z,30.59
2023-04-20T15:37:33.884Z,36.78
2023-04-20T15:41:52.463Z,41.66
2023-04-20T15:46:10.301Z,46.02
2023-04-20T15:50:28.160Z,48.35
2023-04-20T15:54:47.761Z,49.89
2023-04-20T15:59:05.633Z,52.34
2023-04-20T16:03:23.356Z,54.07
2023-04-20T16:07:41.423Z,51.75
2023-04-20T16:11:59.069Z,50.11
2023-04-20T16:16:16.689Z,31.73
2023-04-20T16:20:34.560Z,35.34
2023-04-20T16:24:52.016Z,43.49
2023-04-20T16:29:10.287Z,44.45
2023-04-20T16:33:27.975Z,48.16
2023-04-20T16:37:46.031Z,51.02
2023-04-20T16:42:04.234Z,53.53
2023-04-20T16:46:22.632Z,55.62
2023-04-20T16:50:42.257Z,56.82
2023-04-20T16:54:59.885Z,58.83
2023-04-20T16:59:17.727Z,59.53
2023-04-20T17:03:35.449Z,60.53
2023-04-20T17:07:53.512Z,61.66
2023-04-20T17:12:11.264Z,62.17
2023-04-20T17:16:29.398Z,62.86
2023-04-20T17:20:48.066Z,63.49
2023-04-20T17:25:07.802Z,65.05
2023-04-20T17:29:25.571Z,66.98
2023-04-20T17:33:45.252Z,69.34
2023-04-20T17:38:02.894Z,70.49
2023-04-20T17:42:20.565Z,71.00
2023-04-20T17:46:37.792Z,71.17
2023-04-20T17:50:58.136Z,71.40
2023-04-20T17:55:16.345Z,71.51
2023-04-20T17:59:34.039Z,71.92
2023-04-20T18:03:51.944Z,72.30
2023-04-20T18:08:10.898Z,72.88
2023-04-20T18:12:28.525Z,73.24
2023-04-20T18:16:46.524Z,73.81
2023-04-20T18:21:04.702Z,74.60
2023-04-20T18:25:22.978Z,76.01
2023-04-20T18:29:40.503Z,76.86
2023-04-20T18:33:58.285Z,77.31
2023-04-20T18:38:15.779Z,77.38
2023-04-20T18:42:33.570Z,77.73
2023-04-20T18:46:51.176Z,78.11
2023-04-20T18:51:08.950Z,78.37
2023-04-20T18:55:26.583Z,78.25
2023-04-20T18:59:44.289Z,78.41
2023-04-20T19:04:01.988Z,78.75
2023-04-20T19:08:19.902Z,79.00
2023-04-20T19:12:38.693Z,79.18
2023-04-20T19:16:56.411Z,79.40
2023-04-20T19:21:14.197Z,79.88
2023-04-20T19:25:32.168Z,79.31
2023-04-20T19:29:50.690Z,78.88
2023-04-20T19:34:08.656Z,77.98
2023-04-20T19:38:26.636Z,76.95
2023-04-20T19:42:44.718Z,75.61
2023-04-20T19:47:02.307Z,74.81
2023-04-20T19:51:19.954Z,74.32
2023-04-20T19:55:37.573Z,73.69
2023-04-20T19:59:55.436Z,73.43
2023-04-20T20:04:13.242Z,73.31
2023-04-20T20:08:31.526Z,73.46
2023-04-20T20:12:49.085Z,73.62
2023-04-20T20:17:07.207Z,74.05
2023-04-20T20:21:24.759Z,74.90
2023-04-20T20:25:42.765Z,76.21
2023-04-20T20:30:00.365Z,76.66
2023-04-20T20:34:18.121Z,76.74
2023-04-20T20:38:35.909Z,78.17
2023-04-20T20:42:54.711Z,78.12
2023-04-20T20:47:12.381Z,78.75
2023-04-20T20:51:29.991Z,79.43
2023-04-20T20:55:47.518Z,80.36
2023-04-20T21:00:10.633Z,80.88
2023-04-20T21:04:30.148Z,81.36
2023-04-20T21:08:48.970Z,81.87
2023-04-20T21:13:07.522Z,82.57
2023-04-20T21:17:25.621Z,83.14
2023-04-20T21:21:43.236Z,83.88
2023-04-20T21:26:01.365Z,84.16
2023-04-20T21:30:18.968Z,84.29
2023-04-20T21:34:36.685Z,84.84
2023-04-20T21:38:54.447Z,84.94
2023-04-20T21:43:12.645Z,85.06
2023-04-20T21:47:30.383Z,85.25
2023-04-20T21:51:48.023Z,85.56
2023-04-20T21:56:06.100Z,85.60
2023-04-20T22:00:23.874Z,85.77
2023-04-20T22:04:41.710Z,85.84
2023-04-20T22:08:59.314Z,86.00
2023-04-20T22:13:17.325Z,86.11
2023-04-20T22:17:35.122Z,86.29
2023-04-20T22:21:52.751Z,86.35
2023-04-20T22:26:10.642Z,86.44
2023-04-20T22:30:28.376Z,86.57
2023-04-20T22:34:45.870Z,86.77
2023-04-20T22:39:03.551Z,86.82
2023-04-20T22:43:21.787Z,86.96
2023-04-20T22:47:39.691Z,87.02
2023-04-20T22:51:57.893Z,87.21
2023-04-20T22:56:15.451Z,87.28
2023-04-20T23:00:33.394Z,87.33
2023-04-20T23:04:51.626Z,87.46
2023-04-20T23:09:09.210Z,87.62
2023-04-20T23:13:30.180Z,87.57
2023-04-20T23:17:47.895Z,87.65
2023-04-20T23:22:05.481Z,87.86
2023-04-20T23:26:23.876Z,88.09
2023-04-20T23:30:41.482Z,88.14
2023-04-20T23:34:58.892Z,88.09
2023-04-20T23:39:16.974Z,87.89
2023-04-20T23:43:35.066Z,87.85
2023-04-20T23:47:53.622Z,87.77
2023-04-20T23:52:11.245Z,87.72
2023-04-20T23:56:29.035Z,87.74
